sensor_id;sensor_type;location;lat;lon;timestamp;temperature;humidity
33815;DHT22;20121;51.910;8.406;2022-07-29T00:02:25;18.20;88.30
33815;DHT22;20121;51.910;8.406;2022-07-29T00:04:50;18.20;88.00
33815;DHT22;20121;51.910;8.406;2022-07-29T00:07:16;18.20;87.60
33815;DHT22;20121;51.910;8.406;2022-07-29T00:09:42;18.20;88.30
33815;DHT22;20121;51.910;8.406;2022-07-29T00:12:07;18.20;87.90
33815;DHT22;20121;51.910;8.406;2022-07-29T00:14:33;18.20;88.60
33815;DHT22;20121;51.910;8.406;2022-07-29T00:16:59;18.20;88.80
33815;DHT22;20121;51.910;8.406;2022-07-29T00:19:25;18.10;88.60
33815;DHT22;20121;51.910;8.406;2022-07-29T00:21:50;18.10;88.60
33815;DHT22;20121;51.910;8.406;2022-07-29T00:24:16;18.10;88.40
33815;DHT22;20121;51.910;8.406;2022-07-29T00:26:42;18.10;88.10
33815;DHT22;20121;51.910;8.406;2022-07-29T00:29:07;18.10;88.70
33815;DHT22;20121;51.910;8.406;2022-07-29T00:31:33;18.10;88.90
33815;DHT22;20121;51.910;8.406;2022-07-29T00:33:58;18.10;88.80
33815;DHT22;20121;51.910;8.406;2022-07-29T00:36:24;18.40;92.60
33815;DHT22;20121;51.910;8.406;2022-07-29T00:38:51;18.00;88.70
33815;DHT22;20121;51.910;8.406;2022-07-29T00:41:18;18.00;89.10
33815;DHT22;20121;51.910;8.406;2022-07-29T00:43:44;18.00;89.50
33815;DHT22;20121;51.910;8.406;2022-07-29T00:46:10;18.00;89.20
33815;DHT22;20121;51.910;8.406;2022-07-29T00:48:36;17.90;89.40
33815;DHT22;20121;51.910;8.406;2022-07-29T00:51:03;17.90;89.90
33815;DHT22;20121;51.910;8.406;2022-07-29T00:53:30;17.90;89.80
33815;DHT22;20121;51.910;8.406;2022-07-29T00:55:57;17.90;90.10
33815;DHT22;20121;51.910;8.406;2022-07-29T00:58:23;17.90;89.50
33815;DHT22;20121;51.910;8.406;2022-07-29T01:00:49;17.90;90.30
33815;DHT22;20121;51.910;8.406;2022-07-29T01:03:14;17.80;90.10
33815;DHT22;20121;51.910;8.406;2022-07-29T01:05:42;17.80;90.20
33815;DHT22;20121;51.910;8.406;2022-07-29T01:08:08;17.80;90.10
33815;DHT22;20121;51.910;8.406;2022-07-29T01:10:36;17.80;90.30
33815;DHT22;20121;51.910;8.406;2022-07-29T01:13:03;17.80;90.20
33815;DHT22;20121;51.910;8.406;2022-07-29T01:15:30;17.80;90.30
33815;DHT22;20121;51.910;8.406;2022-07-29T01:23:59;17.70;90.30
33815;DHT22;20121;51.910;8.406;2022-07-29T01:26:34;17.90;93.50
33815;DHT22;20121;51.910;8.406;2022-07-29T01:29:46;17.80;93.00
33815;DHT22;20121;51.910;8.406;2022-07-29T01:32:12;17.70;90.20
33815;DHT22;20121;51.910;8.406;2022-07-29T01:42:50;17.70;90.70
33815;DHT22;20121;51.910;8.406;2022-07-29T01:46:13;17.60;90.40
33815;DHT22;20121;51.910;8.406;2022-07-29T01:48:45;17.60;90.30
33815;DHT22;20121;51.910;8.406;2022-07-29T01:51:19;17.60;90.70
33815;DHT22;20121;51.910;8.406;2022-07-29T01:53:55;17.60;90.50
33815;DHT22;20121;51.910;8.406;2022-07-29T01:56:24;17.40;93.40
33815;DHT22;20121;51.910;8.406;2022-07-29T01:58:52;17.60;90.50
33815;DHT22;20121;51.910;8.406;2022-07-29T02:01:19;17.60;90.40
33815;DHT22;20121;51.910;8.406;2022-07-29T02:03:46;17.60;90.30
33815;DHT22;20121;51.910;8.406;2022-07-29T02:06:16;17.50;90.70
33815;DHT22;20121;51.910;8.406;2022-07-29T02:08:45;17.50;90.90
33815;DHT22;20121;51.910;8.406;2022-07-29T02:11:11;17.50;90.80
33815;DHT22;20121;51.910;8.406;2022-07-29T02:13:37;17.50;90.80
33815;DHT22;20121;51.910;8.406;2022-07-29T02:16:06;17.50;90.80
33815;DHT22;20121;51.910;8.406;2022-07-29T02:18:33;17.50;90.60
33815;DHT22;20121;51.910;8.406;2022-07-29T02:21:01;17.40;91.00
33815;DHT22;20121;51.910;8.406;2022-07-29T02:23:30;17.40;91.40
33815;DHT22;20121;51.910;8.406;2022-07-29T02:25:58;17.40;91.60
33815;DHT22;20121;51.910;8.406;2022-07-29T02:28:26;17.40;91.30
33815;DHT22;20121;51.910;8.406;2022-07-29T02:30:54;17.40;91.70
33815;DHT22;20121;51.910;8.406;2022-07-29T02:33:22;17.30;91.60
33815;DHT22;20121;51.910;8.406;2022-07-29T02:35:50;17.30;92.00
33815;DHT22;20121;51.910;8.406;2022-07-29T02:38:18;17.20;91.80
33815;DHT22;20121;51.910;8.406;2022-07-29T02:41:06;17.20;92.30
33815;DHT22;20121;51.910;8.406;2022-07-29T02:43:34;17.10;92.80
33815;DHT22;20121;51.910;8.406;2022-07-29T02:46:03;17.10;92.70
33815;DHT22;20121;51.910;8.406;2022-07-29T02:48:37;17.10;92.40
33815;DHT22;20121;51.910;8.406;2022-07-29T02:52:12;17.10;92.50
33815;DHT22;20121;51.910;8.406;2022-07-29T02:54:42;17.10;92.50
33815;DHT22;20121;51.910;8.406;2022-07-29T02:57:33;17.00;92.80
33815;DHT22;20121;51.910;8.406;2022-07-29T03:00:04;17.00;92.50
33815;DHT22;20121;51.910;8.406;2022-07-29T03:02:34;17.00;92.10
33815;DHT22;20121;51.910;8.406;2022-07-29T03:05:02;16.90;92.50
33815;DHT22;20121;51.910;8.406;2022-07-29T03:07:29;17.00;92.60
33815;DHT22;20121;51.910;8.406;2022-07-29T03:09:55;16.90;93.10
33815;DHT22;20121;51.910;8.406;2022-07-29T03:12:22;17.00;92.60
33815;DHT22;20121;51.910;8.406;2022-07-29T03:14:49;16.90;92.70
33815;DHT22;20121;51.910;8.406;2022-07-29T03:17:15;16.80;92.50
33815;DHT22;20121;51.910;8.406;2022-07-29T03:19:42;16.80;93.00
33815;DHT22;20121;51.910;8.406;2022-07-29T03:22:08;16.80;93.00
33815;DHT22;20121;51.910;8.406;2022-07-29T03:24:36;16.80;93.30
33815;DHT22;20121;51.910;8.406;2022-07-29T03:27:03;16.70;93.10
33815;DHT22;20121;51.910;8.406;2022-07-29T03:29:29;16.70;93.30
33815;DHT22;20121;51.910;8.406;2022-07-29T03:31:55;16.80;94.20
33815;DHT22;20121;51.910;8.406;2022-07-29T03:34:21;16.70;93.40
33815;DHT22;20121;51.910;8.406;2022-07-29T03:36:47;16.70;93.50
33815;DHT22;20121;51.910;8.406;2022-07-29T03:39:17;16.70;93.90
33815;DHT22;20121;51.910;8.406;2022-07-29T03:41:44;16.60;93.90
33815;DHT22;20121;51.910;8.406;2022-07-29T03:44:12;16.60;94.10
33815;DHT22;20121;51.910;8.406;2022-07-29T03:46:39;16.60;94.00
33815;DHT22;20121;51.910;8.406;2022-07-29T03:49:06;16.60;94.20
33815;DHT22;20121;51.910;8.406;2022-07-29T03:51:33;16.60;94.40
33815;DHT22;20121;51.910;8.406;2022-07-29T03:54:02;16.50;94.80
33815;DHT22;20121;51.910;8.406;2022-07-29T03:56:28;16.60;97.80
33815;DHT22;20121;51.910;8.406;2022-07-29T03:58:55;16.40;94.70
33815;DHT22;20121;51.910;8.406;2022-07-29T04:01:21;16.40;94.50
33815;DHT22;20121;51.910;8.406;2022-07-29T04:03:48;16.40;94.40
33815;DHT22;20121;51.910;8.406;2022-07-29T04:06:14;16.50;94.30
33815;DHT22;20121;51.910;8.406;2022-07-29T04:08:39;16.40;94.50
33815;DHT22;20121;51.910;8.406;2022-07-29T04:11:05;16.50;97.40
33815;DHT22;20121;51.910;8.406;2022-07-29T04:13:32;16.40;94.50
33815;DHT22;20121;51.910;8.406;2022-07-29T04:15:58;16.40;94.40
33815;DHT22;20121;51.910;8.406;2022-07-29T04:18:24;16.40;94.00
33815;DHT22;20121;51.910;8.406;2022-07-29T04:20:50;16.40;95.00
33815;DHT22;20121;51.910;8.406;2022-07-29T04:23:16;16.50;95.00
33815;DHT22;20121;51.910;8.406;2022-07-29T04:25:42;16.50;95.10
33815;DHT22;20121;51.910;8.406;2022-07-29T04:28:08;16.40;94.50
33815;DHT22;20121;51.910;8.406;2022-07-29T04:30:35;16.40;95.20
33815;DHT22;20121;51.910;8.406;2022-07-29T04:33:03;16.40;95.50
33815;DHT22;20121;51.910;8.406;2022-07-29T04:35:30;16.40;95.40
33815;DHT22;20121;51.910;8.406;2022-07-29T04:37:56;16.40;95.20
33815;DHT22;20121;51.910;8.406;2022-07-29T04:40:21;16.40;95.20
33815;DHT22;20121;51.910;8.406;2022-07-29T04:42:47;16.50;95.70
33815;DHT22;20121;51.910;8.406;2022-07-29T04:45:13;16.30;95.80
33815;DHT22;20121;51.910;8.406;2022-07-29T04:47:39;16.40;95.70
33815;DHT22;20121;51.910;8.406;2022-07-29T04:50:05;16.40;95.80
33815;DHT22;20121;51.910;8.406;2022-07-29T04:52:32;16.50;95.60
33815;DHT22;20121;51.910;8.406;2022-07-29T04:54:58;16.60;95.70
33815;DHT22;20121;51.910;8.406;2022-07-29T04:57:23;16.70;95.10
33815;DHT22;20121;51.910;8.406;2022-07-29T04:59:49;16.70;95.50
33815;DHT22;20121;51.910;8.406;2022-07-29T05:02:15;16.80;95.10
33815;DHT22;20121;51.910;8.406;2022-07-29T05:04:40;16.90;95.20
33815;DHT22;20121;51.910;8.406;2022-07-29T05:07:06;17.00;94.20
33815;DHT22;20121;51.910;8.406;2022-07-29T05:09:31;17.00;94.30
33815;DHT22;20121;51.910;8.406;2022-07-29T05:11:57;17.00;94.70
33815;DHT22;20121;51.910;8.406;2022-07-29T05:14:23;17.10;94.80
33815;DHT22;20121;51.910;8.406;2022-07-29T05:16:49;17.10;94.40
33815;DHT22;20121;51.910;8.406;2022-07-29T05:19:16;17.20;94.40
33815;DHT22;20121;51.910;8.406;2022-07-29T05:21:42;17.20;94.30
33815;DHT22;20121;51.910;8.406;2022-07-29T05:24:09;17.30;94.30
33815;DHT22;20121;51.910;8.406;2022-07-29T05:26:35;17.40;93.70
33815;DHT22;20121;51.910;8.406;2022-07-29T05:29:00;17.40;93.80
33815;DHT22;20121;51.910;8.406;2022-07-29T05:31:26;17.40;94.00
33815;DHT22;20121;51.910;8.406;2022-07-29T05:33:52;17.40;94.00
33815;DHT22;20121;51.910;8.406;2022-07-29T05:36:18;17.60;93.90
33815;DHT22;20121;51.910;8.406;2022-07-29T05:38:44;17.50;94.00
33815;DHT22;20121;51.910;8.406;2022-07-29T05:41:10;17.60;93.90
33815;DHT22;20121;51.910;8.406;2022-07-29T05:43:35;17.50;94.10
33815;DHT22;20121;51.910;8.406;2022-07-29T05:46:01;17.50;94.10
33815;DHT22;20121;51.910;8.406;2022-07-29T05:48:27;17.60;94.00
33815;DHT22;20121;51.910;8.406;2022-07-29T05:50:53;17.60;94.30
33815;DHT22;20121;51.910;8.406;2022-07-29T05:53:19;17.60;94.10
33815;DHT22;20121;51.910;8.406;2022-07-29T05:55:44;17.70;94.10
33815;DHT22;20121;51.910;8.406;2022-07-29T05:58:10;17.70;94.00
33815;DHT22;20121;51.910;8.406;2022-07-29T06:00:35;17.70;94.50
33815;DHT22;20121;51.910;8.406;2022-07-29T06:03:01;17.70;94.00
33815;DHT22;20121;51.910;8.406;2022-07-29T06:05:27;17.80;94.30
33815;DHT22;20121;51.910;8.406;2022-07-29T06:07:52;17.80;93.90
33815;DHT22;20121;51.910;8.406;2022-07-29T06:10:18;17.90;94.30
33815;DHT22;20121;51.910;8.406;2022-07-29T06:12:44;17.90;94.50
33815;DHT22;20121;51.910;8.406;2022-07-29T06:15:10;18.00;94.00
33815;DHT22;20121;51.910;8.406;2022-07-29T06:17:36;18.10;94.00
33815;DHT22;20121;51.910;8.406;2022-07-29T06:20:03;18.10;94.40
33815;DHT22;20121;51.910;8.406;2022-07-29T06:22:29;18.20;94.80
33815;DHT22;20121;51.910;8.406;2022-07-29T06:24:55;18.30;94.30
33815;DHT22;20121;51.910;8.406;2022-07-29T06:27:20;18.40;94.40
33815;DHT22;20121;51.910;8.406;2022-07-29T06:29:46;18.50;94.00
33815;DHT22;20121;51.910;8.406;2022-07-29T06:32:12;18.40;93.30
33815;DHT22;20121;51.910;8.406;2022-07-29T06:34:37;18.50;93.90
33815;DHT22;20121;51.910;8.406;2022-07-29T06:37:07;18.50;93.50
33815;DHT22;20121;51.910;8.406;2022-07-29T06:39:37;18.50;93.70
33815;DHT22;20121;51.910;8.406;2022-07-29T06:42:06;18.60;94.20
33815;DHT22;20121;51.910;8.406;2022-07-29T06:47:01;18.70;94.00
33815;DHT22;20121;51.910;8.406;2022-07-29T06:49:27;18.70;93.70
33815;DHT22;20121;51.910;8.406;2022-07-29T06:51:54;18.80;94.10
33815;DHT22;20121;51.910;8.406;2022-07-29T06:54:19;18.90;93.40
33815;DHT22;20121;51.910;8.406;2022-07-29T06:56:45;19.00;92.10
33815;DHT22;20121;51.910;8.406;2022-07-29T06:59:12;19.00;92.70
33815;DHT22;20121;51.910;8.406;2022-07-29T07:01:39;19.00;92.40
33815;DHT22;20121;51.910;8.406;2022-07-29T07:04:05;19.00;92.50
33815;DHT22;20121;51.910;8.406;2022-07-29T07:06:32;18.60;94.90
33815;DHT22;20121;51.910;8.406;2022-07-29T07:08:57;19.00;92.40
33815;DHT22;20121;51.910;8.406;2022-07-29T07:11:23;19.00;92.60
33815;DHT22;20121;51.910;8.406;2022-07-29T07:13:49;19.10;93.50
33815;DHT22;20121;51.910;8.406;2022-07-29T07:16:14;19.30;96.00
33815;DHT22;20121;51.910;8.406;2022-07-29T07:18:40;19.20;93.00
33815;DHT22;20121;51.910;8.406;2022-07-29T07:21:06;19.20;92.40
33815;DHT22;20121;51.910;8.406;2022-07-29T07:23:31;19.20;92.60
33815;DHT22;20121;51.910;8.406;2022-07-29T07:25:57;19.30;92.40
33815;DHT22;20121;51.910;8.406;2022-07-29T07:28:22;19.40;92.10
33815;DHT22;20121;51.910;8.406;2022-07-29T07:30:48;19.40;92.50
33815;DHT22;20121;51.910;8.406;2022-07-29T07:33:14;19.50;92.50
33815;DHT22;20121;51.910;8.406;2022-07-29T07:35:41;19.60;93.10
33815;DHT22;20121;51.910;8.406;2022-07-29T07:38:06;19.30;94.80
33815;DHT22;20121;51.910;8.406;2022-07-29T07:40:32;19.70;92.20
33815;DHT22;20121;51.910;8.406;2022-07-29T07:42:58;19.80;92.00
33815;DHT22;20121;51.910;8.406;2022-07-29T07:45:24;19.80;91.90
33815;DHT22;20121;51.910;8.406;2022-07-29T07:47:50;19.90;91.90
33815;DHT22;20121;51.910;8.406;2022-07-29T07:50:15;20.00;93.00
33815;DHT22;20121;51.910;8.406;2022-07-29T07:52:54;20.00;92.00
33815;DHT22;20121;51.910;8.406;2022-07-29T07:55:23;20.10;92.50
33815;DHT22;20121;51.910;8.406;2022-07-29T07:57:49;20.20;92.60
33815;DHT22;20121;51.910;8.406;2022-07-29T08:00:15;20.30;92.60
33815;DHT22;20121;51.910;8.406;2022-07-29T08:02:41;20.40;92.20
33815;DHT22;20121;51.910;8.406;2022-07-29T08:05:08;20.50;91.50
33815;DHT22;20121;51.910;8.406;2022-07-29T08:07:34;20.80;90.50
33815;DHT22;20121;51.910;8.406;2022-07-29T08:10:00;21.20;91.90
33815;DHT22;20121;51.910;8.406;2022-07-29T08:12:25;21.10;91.00
33815;DHT22;20121;51.910;8.406;2022-07-29T08:14:51;21.30;91.90
33815;DHT22;20121;51.910;8.406;2022-07-29T08:17:17;21.50;90.00
33815;DHT22;20121;51.910;8.406;2022-07-29T08:19:45;21.60;90.10
33815;DHT22;20121;51.910;8.406;2022-07-29T08:22:22;21.80;90.00
33815;DHT22;20121;51.910;8.406;2022-07-29T08:24:48;22.00;89.00
33815;DHT22;20121;51.910;8.406;2022-07-29T08:27:21;22.40;90.00
33815;DHT22;20121;51.910;8.406;2022-07-29T08:29:47;22.60;89.30
33815;DHT22;20121;51.910;8.406;2022-07-29T08:32:13;22.80;88.80
33815;DHT22;20121;51.910;8.406;2022-07-29T08:34:38;22.90;85.70
33815;DHT22;20121;51.910;8.406;2022-07-29T08:37:04;22.90;88.40
33815;DHT22;20121;51.910;8.406;2022-07-29T08:39:30;23.00;88.80
33815;DHT22;20121;51.910;8.406;2022-07-29T08:41:55;23.20;88.30
33815;DHT22;20121;51.910;8.406;2022-07-29T08:44:21;23.10;87.60
33815;DHT22;20121;51.910;8.406;2022-07-29T08:46:48;23.60;86.80
33815;DHT22;20121;51.910;8.406;2022-07-29T08:49:15;23.60;85.80
33815;DHT22;20121;51.910;8.406;2022-07-29T08:51:41;23.60;85.70
33815;DHT22;20121;51.910;8.406;2022-07-29T08:54:09;23.50;86.40
33815;DHT22;20121;51.910;8.406;2022-07-29T08:56:35;23.50;86.60
33815;DHT22;20121;51.910;8.406;2022-07-29T08:59:04;23.60;87.40
33815;DHT22;20121;51.910;8.406;2022-07-29T09:01:33;23.90;87.00
33815;DHT22;20121;51.910;8.406;2022-07-29T09:04:01;23.90;90.80
33815;DHT22;20121;51.910;8.406;2022-07-29T09:06:31;24.40;91.40
33815;DHT22;20121;51.910;8.406;2022-07-29T09:08:59;24.50;86.60
33815;DHT22;20121;51.910;8.406;2022-07-29T09:11:25;24.30;82.60
33815;DHT22;20121;51.910;8.406;2022-07-29T09:13:51;24.20;83.20
33815;DHT22;20121;51.910;8.406;2022-07-29T09:16:19;23.50;83.20
33815;DHT22;20121;51.910;8.406;2022-07-29T09:22:36;23.60;83.30
33815;DHT22;20121;51.910;8.406;2022-07-29T09:25:42;24.20;83.60
33815;DHT22;20121;51.910;8.406;2022-07-29T09:28:41;24.90;82.90
33815;DHT22;20121;51.910;8.406;2022-07-29T09:31:54;25.00;81.60
33815;DHT22;20121;51.910;8.406;2022-07-29T09:34:34;25.10;81.40
33815;DHT22;20121;51.910;8.406;2022-07-29T09:37:27;25.50;81.50
33815;DHT22;20121;51.910;8.406;2022-07-29T09:40:17;25.40;80.60
33815;DHT22;20121;51.910;8.406;2022-07-29T09:43:13;25.60;82.80
33815;DHT22;20121;51.910;8.406;2022-07-29T09:45:42;26.00;81.50
33815;DHT22;20121;51.910;8.406;2022-07-29T09:48:35;26.30;77.40
33815;DHT22;20121;51.910;8.406;2022-07-29T09:51:29;26.40;77.90
33815;DHT22;20121;51.910;8.406;2022-07-29T09:54:01;26.40;75.40
33815;DHT22;20121;51.910;8.406;2022-07-29T09:56:50;26.10;82.30
33815;DHT22;20121;51.910;8.406;2022-07-29T09:59:59;25.70;76.10
33815;DHT22;20121;51.910;8.406;2022-07-29T10:06:06;25.30;77.50
33815;DHT22;20121;51.910;8.406;2022-07-29T10:09:11;25.30;76.10
33815;DHT22;20121;51.910;8.406;2022-07-29T10:12:29;25.10;76.40
33815;DHT22;20121;51.910;8.406;2022-07-29T10:14:32;25.60;79.40
33815;DHT22;20121;51.910;8.406;2022-07-29T10:17:05;25.70;75.10
33815;DHT22;20121;51.910;8.406;2022-07-29T10:19:47;26.00;76.90
33815;DHT22;20121;51.910;8.406;2022-07-29T10:22:28;26.70;75.90
33815;DHT22;20121;51.910;8.406;2022-07-29T10:24:59;26.70;79.20
33815;DHT22;20121;51.910;8.406;2022-07-29T10:27:25;26.70;72.50
33815;DHT22;20121;51.910;8.406;2022-07-29T10:29:54;26.80;72.40
33815;DHT22;20121;51.910;8.406;2022-07-29T10:44:35;27.30;74.20
33815;DHT22;20121;51.910;8.406;2022-07-29T10:47:42;27.30;74.40
33815;DHT22;20121;51.910;8.406;2022-07-29T10:50:24;27.30;72.80
33815;DHT22;20121;51.910;8.406;2022-07-29T10:52:55;27.20;73.20
33815;DHT22;20121;51.910;8.406;2022-07-29T10:55:37;27.60;74.60
33815;DHT22;20121;51.910;8.406;2022-07-29T10:58:12;27.70;76.60
33815;DHT22;20121;51.910;8.406;2022-07-29T11:00:39;27.60;76.40
33815;DHT22;20121;51.910;8.406;2022-07-29T11:03:08;28.00;73.10
33815;DHT22;20121;51.910;8.406;2022-07-29T11:05:54;27.90;73.50
33815;DHT22;20121;51.910;8.406;2022-07-29T11:08:21;28.40;72.00
33815;DHT22;20121;51.910;8.406;2022-07-29T11:10:53;28.50;72.50
33815;DHT22;20121;51.910;8.406;2022-07-29T11:13:45;27.80;77.10
33815;DHT22;20121;51.910;8.406;2022-07-29T11:16:17;27.60;78.50
33815;DHT22;20121;51.910;8.406;2022-07-29T11:21:40;27.90;75.60
33815;DHT22;20121;51.910;8.406;2022-07-29T11:24:21;27.60;74.30
33815;DHT22;20121;51.910;8.406;2022-07-29T11:29:35;27.90;73.10
33815;DHT22;20121;51.910;8.406;2022-07-29T11:32:13;28.00;73.20
33815;DHT22;20121;51.910;8.406;2022-07-29T11:34:40;27.70;72.80
33815;DHT22;20121;51.910;8.406;2022-07-29T11:47:52;27.00;72.30
33815;DHT22;20121;51.910;8.406;2022-07-29T11:50:34;26.90;72.80
33815;DHT22;20121;51.910;8.406;2022-07-29T11:53:02;27.20;72.50
33815;DHT22;20121;51.910;8.406;2022-07-29T11:55:28;27.30;73.20
33815;DHT22;20121;51.910;8.406;2022-07-29T11:57:56;27.60;70.90
33815;DHT22;20121;51.910;8.406;2022-07-29T12:00:39;27.80;73.40
33815;DHT22;20121;51.910;8.406;2022-07-29T12:03:08;28.00;74.10
33815;DHT22;20121;51.910;8.406;2022-07-29T12:05:39;28.30;72.00
33815;DHT22;20121;51.910;8.406;2022-07-29T12:08:07;28.90;69.50
33815;DHT22;20121;51.910;8.406;2022-07-29T12:10:33;28.50;69.30
33815;DHT22;20121;51.910;8.406;2022-07-29T12:12:59;28.70;69.30
33815;DHT22;20121;51.910;8.406;2022-07-29T12:15:24;28.90;70.70
33815;DHT22;20121;51.910;8.406;2022-07-29T12:17:52;29.10;66.40
33815;DHT22;20121;51.910;8.406;2022-07-29T12:20:29;29.10;66.50
33815;DHT22;20121;51.910;8.406;2022-07-29T12:22:55;29.10;66.70
33815;DHT22;20121;51.910;8.406;2022-07-29T12:25:23;29.10;68.70
33815;DHT22;20121;51.910;8.406;2022-07-29T12:28:03;28.00;70.30
33815;DHT22;20121;51.910;8.406;2022-07-29T12:33:20;27.80;69.10
33815;DHT22;20121;51.910;8.406;2022-07-29T12:35:49;27.70;69.40
33815;DHT22;20121;51.910;8.406;2022-07-29T12:38:16;27.90;75.30
33815;DHT22;20121;51.910;8.406;2022-07-29T12:40:43;28.30;72.80
33815;DHT22;20121;51.910;8.406;2022-07-29T12:43:14;28.40;70.10
33815;DHT22;20121;51.910;8.406;2022-07-29T12:45:43;28.70;70.10
33815;DHT22;20121;51.910;8.406;2022-07-29T12:48:09;28.90;70.70
33815;DHT22;20121;51.910;8.406;2022-07-29T12:50:47;28.90;67.20
33815;DHT22;20121;51.910;8.406;2022-07-29T12:53:16;28.80;69.50
33815;DHT22;20121;51.910;8.406;2022-07-29T12:55:44;28.00;68.30
33815;DHT22;20121;51.910;8.406;2022-07-29T12:58:25;28.00;69.20
33815;DHT22;20121;51.910;8.406;2022-07-29T13:01:08;28.10;71.00
33815;DHT22;20121;51.910;8.406;2022-07-29T13:03:54;27.60;70.60
33815;DHT22;20121;51.910;8.406;2022-07-29T13:09:09;27.40;71.30
33815;DHT22;20121;51.910;8.406;2022-07-29T13:11:37;27.20;71.90
33815;DHT22;20121;51.910;8.406;2022-07-29T13:14:04;27.30;72.60
33815;DHT22;20121;51.910;8.406;2022-07-29T13:16:30;27.30;77.70
33815;DHT22;20121;51.910;8.406;2022-07-29T13:19:10;27.10;71.60
33815;DHT22;20121;51.910;8.406;2022-07-29T13:21:37;27.20;71.30
33815;DHT22;20121;51.910;8.406;2022-07-29T13:24:03;27.10;71.50
33815;DHT22;20121;51.910;8.406;2022-07-29T13:26:29;27.60;76.90
33815;DHT22;20121;51.910;8.406;2022-07-29T13:28:55;27.10;70.60
33815;DHT22;20121;51.910;8.406;2022-07-29T13:31:21;27.10;72.60
33815;DHT22;20121;51.910;8.406;2022-07-29T13:33:47;26.80;70.90
33815;DHT22;20121;51.910;8.406;2022-07-29T13:36:13;26.50;71.60
33815;DHT22;20121;51.910;8.406;2022-07-29T13:38:38;26.50;71.70
33815;DHT22;20121;51.910;8.406;2022-07-29T13:41:05;26.50;72.10
33815;DHT22;20121;51.910;8.406;2022-07-29T13:43:30;26.60;74.50
33815;DHT22;20121;51.910;8.406;2022-07-29T13:45:56;26.30;71.70
33815;DHT22;20121;51.910;8.406;2022-07-29T13:48:22;26.20;72.60
33815;DHT22;20121;51.910;8.406;2022-07-29T13:50:47;26.50;74.70
33815;DHT22;20121;51.910;8.406;2022-07-29T13:53:13;26.70;80.00
33815;DHT22;20121;51.910;8.406;2022-07-29T13:55:39;26.80;79.60
33815;DHT22;20121;51.910;8.406;2022-07-29T13:58:05;26.30;72.50
33815;DHT22;20121;51.910;8.406;2022-07-29T14:00:30;26.40;78.40
33815;DHT22;20121;51.910;8.406;2022-07-29T14:02:56;26.40;73.40
33815;DHT22;20121;51.910;8.406;2022-07-29T14:05:22;26.50;74.20
33815;DHT22;20121;51.910;8.406;2022-07-29T14:07:48;26.60;73.90
33815;DHT22;20121;51.910;8.406;2022-07-29T14:10:14;26.60;74.30
33815;DHT22;20121;51.910;8.406;2022-07-29T14:12:39;26.40;75.00
33815;DHT22;20121;51.910;8.406;2022-07-29T14:15:07;25.90;75.70
33815;DHT22;20121;51.910;8.406;2022-07-29T14:17:33;25.90;74.30
33815;DHT22;20121;51.910;8.406;2022-07-29T14:19:59;25.60;75.00
33815;DHT22;20121;51.910;8.406;2022-07-29T14:22:24;25.70;75.90
33815;DHT22;20121;51.910;8.406;2022-07-29T14:24:50;25.60;76.50
33815;DHT22;20121;51.910;8.406;2022-07-29T14:27:16;25.50;76.10
33815;DHT22;20121;51.910;8.406;2022-07-29T14:29:42;25.50;76.60
33815;DHT22;20121;51.910;8.406;2022-07-29T14:32:08;25.60;77.20
33815;DHT22;20121;51.910;8.406;2022-07-29T14:34:36;25.60;78.50
33815;DHT22;20121;51.910;8.406;2022-07-29T14:37:03;25.30;77.00
33815;DHT22;20121;51.910;8.406;2022-07-29T14:39:30;24.90;77.50
33815;DHT22;20121;51.910;8.406;2022-07-29T14:41:56;25.00;77.70
33815;DHT22;20121;51.910;8.406;2022-07-29T14:44:22;25.00;77.40
33815;DHT22;20121;51.910;8.406;2022-07-29T14:46:47;24.80;78.50
33815;DHT22;20121;51.910;8.406;2022-07-29T14:49:13;25.20;86.30
33815;DHT22;20121;51.910;8.406;2022-07-29T14:51:39;24.70;78.20
33815;DHT22;20121;51.910;8.406;2022-07-29T14:54:04;25.20;85.60
33815;DHT22;20121;51.910;8.406;2022-07-29T14:56:30;23.00;82.60
33815;DHT22;20121;51.910;8.406;2022-07-29T14:58:56;24.70;78.70
33815;DHT22;20121;51.910;8.406;2022-07-29T15:01:23;24.80;77.40
33815;DHT22;20121;51.910;8.406;2022-07-29T15:03:49;24.80;78.00
33815;DHT22;20121;51.910;8.406;2022-07-29T15:06:15;24.30;80.30
33815;DHT22;20121;51.910;8.406;2022-07-29T15:08:41;24.50;78.80
33815;DHT22;20121;51.910;8.406;2022-07-29T15:11:07;24.50;78.60
33815;DHT22;20121;51.910;8.406;2022-07-29T15:13:33;24.50;77.80
33815;DHT22;20121;51.910;8.406;2022-07-29T15:15:58;24.40;78.50
33815;DHT22;20121;51.910;8.406;2022-07-29T15:18:24;24.40;77.90
33815;DHT22;20121;51.910;8.406;2022-07-29T15:20:50;24.50;79.60
33815;DHT22;20121;51.910;8.406;2022-07-29T15:23:18;24.60;78.80
33815;DHT22;20121;51.910;8.406;2022-07-29T15:25:43;24.60;78.90
33815;DHT22;20121;51.910;8.406;2022-07-29T15:28:09;24.60;78.10
33815;DHT22;20121;51.910;8.406;2022-07-29T15:30:35;24.50;79.40
33815;DHT22;20121;51.910;8.406;2022-07-29T15:33:07;24.50;79.60
33815;DHT22;20121;51.910;8.406;2022-07-29T15:35:33;24.40;80.00
33815;DHT22;20121;51.910;8.406;2022-07-29T15:37:59;24.40;80.00
33815;DHT22;20121;51.910;8.406;2022-07-29T15:40:25;24.30;80.50
33815;DHT22;20121;51.910;8.406;2022-07-29T15:42:50;24.50;89.60
33815;DHT22;20121;51.910;8.406;2022-07-29T15:45:16;24.30;82.50
33815;DHT22;20121;51.910;8.406;2022-07-29T15:47:42;24.20;81.20
33815;DHT22;20121;51.910;8.406;2022-07-29T15:50:08;24.30;81.70
33815;DHT22;20121;51.910;8.406;2022-07-29T15:52:39;24.20;81.10
33815;DHT22;20121;51.910;8.406;2022-07-29T15:55:05;24.10;81.40
33815;DHT22;20121;51.910;8.406;2022-07-29T15:57:30;24.00;81.50
33815;DHT22;20121;51.910;8.406;2022-07-29T15:59:56;24.00;84.00
33815;DHT22;20121;51.910;8.406;2022-07-29T16:02:22;24.00;82.40
33815;DHT22;20121;51.910;8.406;2022-07-29T16:04:47;23.90;82.40
33815;DHT22;20121;51.910;8.406;2022-07-29T16:07:13;23.90;81.60
33815;DHT22;20121;51.910;8.406;2022-07-29T16:09:40;24.00;83.00
33815;DHT22;20121;51.910;8.406;2022-07-29T16:12:05;23.80;83.10
33815;DHT22;20121;51.910;8.406;2022-07-29T16:14:31;23.60;83.00
33815;DHT22;20121;51.910;8.406;2022-07-29T16:19:23;23.40;84.20
33815;DHT22;20121;51.910;8.406;2022-07-29T16:21:48;23.40;85.50
33815;DHT22;20121;51.910;8.406;2022-07-29T16:24:14;23.40;85.40
33815;DHT22;20121;51.910;8.406;2022-07-29T16:26:40;23.30;84.90
33815;DHT22;20121;51.910;8.406;2022-07-29T16:29:05;23.20;85.60
33815;DHT22;20121;51.910;8.406;2022-07-29T16:31:31;23.10;85.80
33815;DHT22;20121;51.910;8.406;2022-07-29T16:33:56;22.90;85.80
33815;DHT22;20121;51.910;8.406;2022-07-29T16:36:22;23.00;90.00
33815;DHT22;20121;51.910;8.406;2022-07-29T16:38:48;22.80;86.90
33815;DHT22;20121;51.910;8.406;2022-07-29T16:41:14;22.80;86.70
33815;DHT22;20121;51.910;8.406;2022-07-29T16:43:40;22.80;87.10